Timeline UpdatesTrip UpdatesNews PostsPvt PostsTravel TipsAdmin PostsConv PostsFollowed PostsChat RequestsBlog PostsPNR Posts

Disclaimer
Search
 
 
Wed Sep 24, 2014 03:57:06 ISTHomeTrainsΣChainsAtlasPNRForumGalleryNewsFAQTripsMembersLoginFeedback
No Recent News for this Train
Other Trains in the News **new
Latest...
⇐ Return Journey: Train# 53043

53044/Rajgir - Howrah Fast Passenger (UnReserved)

Time-Table HAS CHANGED.
Sep 03 (12:25AM)
Change Departure Station:
Change Arrival Station:
Post a Train Travel TipPost a Train Travel Tip **new
Post a Comment/Question/Picture/VideoPost a Comment/Question/Picture/Video
Pantry/Catering
✕ NO Pantry Car
✕ NO Catering
RSA - Rake Sharing
Rake/Coach Composition
Loco
HWH WDM 3A/3D
News    PNR    Forum    Time-Table    Availability    Fare Chart    Map    Arr/Dep History    Trips    Gallery    ΣChains    X/O    Timeline    
Travel Time: 23h 30m    72 halts    Distance: 657 km    Avg Speed: 27 km/hr
Type: Passenger
Zone: ER/Eastern
Departs @ 12:40 (Avg 1h 49m late)
Platform# ???
SMTWTFS
Rajgir/RGD 
Arrives @ 12:10 +1 night (Avg 3h 30m late)
Platform# 1
SMTWTFS
Kolkata Howrah Junction/HWH 

72 halts. 158 intermediate Stations between Rajgir and Kolkata Howrah Junction

Show ALL intermediate Stations  Show Old Time-Table

#CodeStation NameX/OArrivesAvgDepartsAvgHaltPFDay#KmSpeedElevZoneAddress
1RGDRajgir (3)»  -12:40+1:49--10.03871mECRRajgir, Bihar
2NLDNalanda (2)  12:58+2:2712:59+2:521m--111.34063mECRNational Highway 82, Bihar
3BEHSBihar Sharif (2)  13:18+2:2413:23+2:245m--123.83656mECR06112-222306, Bihar
4WENAWena (2)  13:46+2:4313:47+2:441m--137.8947mECRWena, Bihar
5HRTHarnaut (3)X  14:21+3:0314:28+3:147m--142.95349mECRHarnaut, Bihar
6BKPBakhtiyarpur Junction (5)XO  14:40+2:1515:10+2:5630m--153.66851mECRPatna, Bihar
7ATLAthmal Gola (2)  15:18+3:4015:19+3:401m--162.65052mECRPatna, Bihar
8BARHBarh (3)X  15:30+2:4415:32+2:482m--171.77749mECRBarh, Bihar
9PHKPunarakh (2)  15:40+3:5215:41+3:531m--181.92951mECRPunarakh, Bihar
10MORMor (2)XO  15:58+3:5116:27+3:3429m--190.14946mECRMor, Bihar
11MKAMokama Junction (4)  16:36+3:0216:40+3:004m--197.45648mECRPatna, Bihar
12HTZHathidah Junction (2)X  16:49+2:4916:51+2:492m11105.84650mECRMusahari, Bihar
13RDUMRampur Dumra (3)OO  16:56+3:2116:57+3:261m--1109.63746mECRNational Highway 80, Bihar
14BRYABarhiya (3)  17:06+3:2717:08+3:282m--1115.22247mECRBarahiya, Bihar
15MKBMankatha  17:34+3:3817:40+3:436m--1124.63047mECRNational Highway 80, Bihar
16LKRLuckeesarai Junction (2)X  17:51+3:2717:53+3:272m--1130.21252mECRLakhisarai, Bihar
17KIULKiul Junction (5)X  18:00+1:5918:25+1:5325m--1131.63653mECRDist. Lakhisarai, Bihar
18DNREDhanauri  18:35+3:3118:37+3:352m--1137.64948mERNational Highway 80, Bihar
19URENUrenX  18:43+3:5118:45+3:532m--1142.55845mERUren, Bihar
20KJHKajra (2)  18:50+3:3918:51+3:411m--1147.36250mERLakhisarai District, Bihar
21AHAAbhaipur (3)  18:58+3:4518:59+3:461m--1154.64852mERAbhaipur, Bihar
22MSDNMasudan (2)  19:04+3:4719:05+3:471m--1158.66045mERMasudan, Bihar
23DRHDharhara (2)  19:11+3:4819:12+3:481m--1164.61855mERDharhara, Bihar
24DRTPDasharathpur (2)  19:30+3:3719:31+3:381m--1170.03248mERDharhara, Bihar
25JMPJamalpur Junction (4)  19:43+2:0919:58+2:0915m11176.44259mERJamalpur 06344-243101, Bihar
26RPURRatanpur (2)  20:07+3:4020:08+3:401m--1182.75846mERRatanpur Railway Station, Bihar
27BUPBariarpur (3)  20:13+3:4820:14+3:541m--1187.51142mERMunger, Bihar
28KPRDKalyanpur Road (3)  20:21+3:4920:22+3:491m--1188.81040mERMunger, Bihar
29GNNAGangani (2)  20:29+3:4920:30+3:491m--1190.013338mERGangania, Bihar
30SGGSultanGanj (3)  20:37+3:1220:40+3:123m--1205.56642mERSultanganj, Bihar
31MVVMaheshi (2) new halt!!  20:46-20:47-1m--1212.14137mERTilakpur, Bihar
32AKNAkbarnagar (3)  20:52+3:5220:53+3:531m--1215.54439mERTilakpur, Bihar
33NATNathnagar (2)  21:01+3:5321:02+3:561m--1225.74048mERBhagalpur, Bihar
34BGPBhagalpur Junction (6)X  21:09+3:1621:19+3:2110m--1230.45049mERBhagalpur, Bihar
35SBOSabaur (3)  21:28+4:1921:29+4:271m--1238.04442mERSabour, Bihar
36LMMLailakh Mamalkha (2)  21:38+4:2821:39+4:311m--1244.65836mERLailakh Mamlkha, Bihar
37GGAGhoga (2)  21:45+4:3421:47+4:402m--1250.46942mERGhoga, Bihar
38EKCEkchari (1)  21:52+4:4221:53+4:431m11256.15237mERNational Highway 80, Bihar
39CLGKahalgaon (2)  21:58+4:4622:00+4:482m11260.54944mERBhagalpur, Bihar
40SVRPShivanarayanpur (2)X  22:14+4:1722:38+4:0324m--1272.04847mERShivanarayanpur, Bihar
41PPTPirpainti (2)  22:49+4:0522:51+4:152m--1280.85653mERBhagalpur, Bihar
42MZCMirza Cheuki (3)X  23:00+4:1723:06+4:176m31289.32638mERBihar, Bihar
43SBGSahibganj Junction (3)X  23:41+4:1323:59+4:1618m11304.45238mERSahibganj, Jharkhand
44SLJSakrigali Junction (3)X  00:08+4:2900:09+4:341m--2312.25345mERSakrigali, Jharkhand
45MJPMaharajpur (2)  00:16+4:3800:17+4:461m--2318.38534mERMoharajpur, Jharkhand
46TLJTaljhari  00:27+4:5400:28+5:041m--2332.55838mERTaljhari, Jharkhand
47KXEKalian Chak  00:33+5:0500:34+5:061m--2337.35845mERKalian Chak, Jharkhand
48TPHTinpahar Junction (3)  00:39+5:0900:42+5:093m22342.15945mERBamangawan, Jharkhand
49BKLEBakudi (3)  00:51+5:1300:52+5:131m--2350.92665mERBakudi, Jharkhand
50BHWBarharwa Junction (3)X  01:10+5:0401:20+5:0410m22358.84436mERBarharwa, Jharkhand
51GMANGumani (3)X  01:30+5:2001:31+5:221m--2366.26731mERGumani, Jharkhand
52KLPKotalpukur (3)XO  01:37+5:1201:39+5:112m--2372.92240mERKotalpukur, Jharkhand
53PKRPakur (2)X  02:10 02:11+4:1502:11 02:16+4:161 5m22384.96337mERDist:- Pakur, Jharkhand
54RJGRajgram (3)  02:26+5:1402:27+5:141m22395.47032mERDist - Birbhum, West Bengal
55MRRMurarai (3)X  02:37+5:2802:38+5:321m--2407.17036mERDist - Birbhum, West Bengal
56NHTNalhati Junction (4)X  02:52+5:4202:54+5:442m22423.42948mERDist - Birbhum, West Bengal
57RPHRampurhat (3)X  03:23+4:4203:43+4:3920m--2437.46741mERDIST - Birbhum, West Bengal
58SNTSainthia Junction (4)  04:08+4:0804:13+4:075m42465.44758mERDist - Birbhum, West Bengal
59AMPAhmadpur Junction (3)O  04:30+5:3704:35 04:32+5:455 2m--2478.72546mERDist - Birbhum, West Bengal
60PNEPrantik (3)  05:08+5:2505:09+5:251m--2493.95148mERDist - Birbhum, West Bengal
61BHPBolpur Shantiniketan (3)  05:14+5:4905:19+5:485m--2498.26059mERDist - Birbhum, West Bengal
62BDHBhedia (2)  05:27+5:2305:28+5:231m--2506.25541mERDist - Bardhaman, West Bengal
63GKHGuskara (2)X  05:40+5:0105:41+5:021m12517.16041mERDist - Bardhaman, West Bengal
64BPSBanpas (3)  05:51+5:0405:52+5:041m--2527.21146mERDist - Bardhaman, West Bengal
65KANKhana Junction (5)X  06:45+4:5306:46+4:531m--2536.85642mERDist - Bardhaman, West Bengal
66BWNBarddhaman Junction (8)XO  07:00+4:3907:20+4:3620m--2549.95034mERDist - Barddhaman, West Bengal
67MYMMemari (4)  07:50+4:4208:00+4:3610m--2575.02225mERMemari, West Bengal
68MUGMagra (3)  09:38+4:1209:43+4:205m--2610.4715mERMagra, West Bengal
69BDCBandel Junction (7)  10:44+4:2610:50+4:266m--2617.23214mERdist - HOOGHLY, West Bengal
70CNSChuchura (3)  10:57+4:5010:58+4:501m--2620.93615mERDist - HOOGHLY - 712102, West Bengal
71CGRChandan Nagar (3)  11:03+3:1711:05+4:242m--2623.95316mERDist -HOOGHLY - 712136, West Bengal
72SHESeoraphuli Junction (6)  11:17+3:2911:19+3:292m--2634.63013mERBaidyabati, West Bengal
73SRPSerampore (4)X  11:24+3:2911:28+4:464m--2637.12811mERdist - hooghly, West Bengal
74HWHKolkata Howrah Junction (23)•  12:10+3:30-12656.7-10mERHowrah 711101, West Bengal
Scroll to Top
Scroll to Bottom